sensor_id;sensor_type;location;lat;lon;timestamp;temperature;humidity
63407;SHT31;49543;45.892;10.838;2024-01-06T10:17:53;6.17;99.99
63407;SHT31;49543;45.892;10.838;2024-01-06T10:20:19;6.19;99.99
63407;SHT31;49543;45.892;10.838;2024-01-06T10:22:46;6.21;99.99
63407;SHT31;49543;45.892;10.838;2024-01-06T10:25:12;6.22;99.99
63407;SHT31;49543;45.892;10.838;2024-01-06T10:27:41;6.21;99.99
63407;SHT31;49543;45.892;10.838;2024-01-06T10:30:08;6.22;99.99
63407;SHT31;49543;45.892;10.838;2024-01-06T10:32:35;6.25;99.99
63407;SHT31;49543;45.892;10.838;2024-01-06T10:35:02;6.24;99.99
63407;SHT31;49543;45.892;10.838;2024-01-06T10:37:29;6.24;99.99
63407;SHT31;49543;45.892;10.838;2024-01-06T10:40:31;6.28;99.99
63407;SHT31;49543;45.892;10.838;2024-01-06T10:42:56;6.25;99.99
63407;SHT31;49543;45.892;10.838;2024-01-06T10:45:28;6.26;99.99
63407;SHT31;49543;45.892;10.838;2024-01-06T10:47:55;6.26;99.99
63407;SHT31;49543;45.892;10.838;2024-01-06T10:50:21;6.29;99.99
63407;SHT31;49543;45.892;10.838;2024-01-06T10:52:47;6.28;99.99
63407;SHT31;49543;45.892;10.838;2024-01-06T10:55:16;6.28;99.99
63407;SHT31;49543;45.892;10.838;2024-01-06T10:57:46;6.29;99.99
63407;SHT31;49543;45.892;10.838;2024-01-06T11:00:12;6.29;99.99
63407;SHT31;49543;45.892;10.838;2024-01-06T11:02:42;6.33;99.99
63407;SHT31;49543;45.892;10.838;2024-01-06T11:05:09;6.33;99.99
63407;SHT31;49543;45.892;10.838;2024-01-06T11:07:37;6.32;99.99
63407;SHT31;49543;45.892;10.838;2024-01-06T11:10:14;6.35;99.99
63407;SHT31;49543;45.892;10.838;2024-01-06T11:12:43;6.33;99.99
63407;SHT31;49543;45.892;10.838;2024-01-06T11:15:09;6.35;99.99
63407;SHT31;49543;45.892;10.838;2024-01-06T11:17:54;6.38;99.99
63407;SHT31;49543;45.892;10.838;2024-01-06T11:20:26;6.39;99.99
63407;SHT31;49543;45.892;10.838;2024-01-06T11:22:52;6.43;99.99
63407;SHT31;49543;45.892;10.838;2024-01-06T11:25:19;6.42;99.99
63407;SHT31;49543;45.892;10.838;2024-01-06T11:27:48;6.42;99.99
63407;SHT31;49543;45.892;10.838;2024-01-06T11:30:24;6.45;99.99
63407;SHT31;49543;45.892;10.838;2024-01-06T11:32:52;6.42;99.99
63407;SHT31;49543;45.892;10.838;2024-01-06T11:35:19;6.43;99.99
63407;SHT31;49543;45.892;10.838;2024-01-06T11:40:16;6.46;99.99
63407;SHT31;49543;45.892;10.838;2024-01-06T11:42:48;6.45;99.99
63407;SHT31;49543;45.892;10.838;2024-01-06T11:45:14;6.46;99.99
63407;SHT31;49543;45.892;10.838;2024-01-06T11:50:16;6.49;99.99
63407;SHT31;49543;45.892;10.838;2024-01-06T11:52:41;6.49;99.99
63407;SHT31;49543;45.892;10.838;2024-01-06T11:55:08;6.52;99.99
63407;SHT31;49543;45.892;10.838;2024-01-06T11:57:34;6.53;99.99
63407;SHT31;49543;45.892;10.838;2024-01-06T12:00:00;6.50;99.99
63407;SHT31;49543;45.892;10.838;2024-01-06T12:02:26;6.54;99.99
63407;SHT31;49543;45.892;10.838;2024-01-06T12:04:52;6.54;99.99
63407;SHT31;49543;45.892;10.838;2024-01-06T12:07:22;6.56;99.99
63407;SHT31;49543;45.892;10.838;2024-01-06T12:10:03;6.58;99.99
63407;SHT31;49543;45.892;10.838;2024-01-06T12:15:41;6.57;99.99
63407;SHT31;49543;45.892;10.838;2024-01-06T12:18:10;6.58;99.99
63407;SHT31;49543;45.892;10.838;2024-01-06T12:20:35;6.57;99.99
63407;SHT31;49543;45.892;10.838;2024-01-06T12:23:01;6.62;99.99
63407;SHT31;49543;45.892;10.838;2024-01-06T12:25:31;6.62;99.99
63407;SHT31;49543;45.892;10.838;2024-01-06T12:28:01;6.65;99.99
63407;SHT31;49543;45.892;10.838;2024-01-06T12:30:26;6.65;99.99
63407;SHT31;49543;45.892;10.838;2024-01-06T12:32:53;6.65;99.99
63407;SHT31;49543;45.892;10.838;2024-01-06T12:35:20;6.67;99.99
63407;SHT31;49543;45.892;10.838;2024-01-06T12:37:46;6.66;99.99
63407;SHT31;49543;45.892;10.838;2024-01-06T12:40:13;6.70;99.99
63407;SHT31;49543;45.892;10.838;2024-01-06T12:42:40;6.66;99.99
63407;SHT31;49543;45.892;10.838;2024-01-06T12:45:06;6.67;99.99
63407;SHT31;49543;45.892;10.838;2024-01-06T12:47:32;6.72;99.99
63407;SHT31;49543;45.892;10.838;2024-01-06T12:49:59;6.67;99.99
63407;SHT31;49543;45.892;10.838;2024-01-06T12:52:24;6.69;99.99
63407;SHT31;49543;45.892;10.838;2024-01-06T12:54:50;6.70;99.99
63407;SHT31;49543;45.892;10.838;2024-01-06T12:57:16;6.72;99.99
63407;SHT31;49543;45.892;10.838;2024-01-06T12:59:42;6.76;99.99
63407;SHT31;49543;45.892;10.838;2024-01-06T13:02:08;6.74;99.99
63407;SHT31;49543;45.892;10.838;2024-01-06T13:04:34;6.76;99.99
63407;SHT31;49543;45.892;10.838;2024-01-06T13:07:00;6.74;99.99
63407;SHT31;49543;45.892;10.838;2024-01-06T13:09:27;6.77;99.99
63407;SHT31;49543;45.892;10.838;2024-01-06T13:11:53;6.77;99.99
63407;SHT31;49543;45.892;10.838;2024-01-06T13:14:21;6.79;99.99
63407;SHT31;49543;45.892;10.838;2024-01-06T13:16:47;6.79;99.99
63407;SHT31;49543;45.892;10.838;2024-01-06T13:19:12;6.80;99.99
63407;SHT31;49543;45.892;10.838;2024-01-06T13:21:38;6.83;99.99
63407;SHT31;49543;45.892;10.838;2024-01-06T13:24:06;6.83;99.99
63407;SHT31;49543;45.892;10.838;2024-01-06T13:26:31;6.84;99.99
63407;SHT31;49543;45.892;10.838;2024-01-06T13:28:57;6.84;99.99
63407;SHT31;49543;45.892;10.838;2024-01-06T13:31:35;6.85;99.99
63407;SHT31;49543;45.892;10.838;2024-01-06T13:34:15;6.87;99.99
63407;SHT31;49543;45.892;10.838;2024-01-06T13:50:52;6.97;99.99
63407;SHT31;49543;45.892;10.838;2024-01-06T13:53:20;6.98;99.99
63407;SHT31;49543;45.892;10.838;2024-01-06T13:58:21;7.01;99.99
63407;SHT31;49543;45.892;10.838;2024-01-06T14:00:50;7.03;99.99
63407;SHT31;49543;45.892;10.838;2024-01-06T14:03:16;7.03;99.99
63407;SHT31;49543;45.892;10.838;2024-01-06T14:05:42;7.04;99.99
63407;SHT31;49543;45.892;10.838;2024-01-06T14:08:07;7.07;99.99
63407;SHT31;49543;45.892;10.838;2024-01-06T14:10:33;7.08;99.99
63407;SHT31;49543;45.892;10.838;2024-01-06T14:12:58;7.08;99.99
63407;SHT31;49543;45.892;10.838;2024-01-06T14:15:34;7.09;99.99
63407;SHT31;49543;45.892;10.838;2024-01-06T14:18:03;7.12;99.99
63407;SHT31;49543;45.892;10.838;2024-01-06T14:20:29;7.12;99.99
63407;SHT31;49543;45.892;10.838;2024-01-06T14:22:56;7.11;99.99
63407;SHT31;49543;45.892;10.838;2024-01-06T14:25:22;7.12;99.99
63407;SHT31;49543;45.892;10.838;2024-01-06T14:27:52;7.14;99.99
63407;SHT31;49543;45.892;10.838;2024-01-06T14:30:17;7.12;99.99
63407;SHT31;49543;45.892;10.838;2024-01-06T14:32:45;7.14;99.99
63407;SHT31;49543;45.892;10.838;2024-01-06T14:35:13;7.14;99.99
63407;SHT31;49543;45.892;10.838;2024-01-06T14:37:39;7.12;99.99
63407;SHT31;49543;45.892;10.838;2024-01-06T14:40:07;7.12;99.99
63407;SHT31;49543;45.892;10.838;2024-01-06T14:42:38;7.11;99.99
63407;SHT31;49543;45.892;10.838;2024-01-06T14:45:15;7.12;99.99
63407;SHT31;49543;45.892;10.838;2024-01-06T14:47:49;7.12;99.99
63407;SHT31;49543;45.892;10.838;2024-01-06T14:50:17;7.14;99.99
63407;SHT31;49543;45.892;10.838;2024-01-06T14:52:54;7.11;99.99
63407;SHT31;49543;45.892;10.838;2024-01-06T14:55:21;7.09;99.99
63407;SHT31;49543;45.892;10.838;2024-01-06T14:57:47;7.14;99.99
63407;SHT31;49543;45.892;10.838;2024-01-06T15:00:17;7.12;99.99
63407;SHT31;49543;45.892;10.838;2024-01-06T15:02:43;7.11;99.99
63407;SHT31;49543;45.892;10.838;2024-01-06T15:05:11;7.12;99.99
63407;SHT31;49543;45.892;10.838;2024-01-06T15:07:39;7.12;99.99
63407;SHT31;49543;45.892;10.838;2024-01-06T15:10:09;7.11;99.99
63407;SHT31;49543;45.892;10.838;2024-01-06T15:12:35;7.11;99.99
63407;SHT31;49543;45.892;10.838;2024-01-06T15:15:10;7.12;99.99
63407;SHT31;49543;45.892;10.838;2024-01-06T15:17:38;7.09;99.99
63407;SHT31;49543;45.892;10.838;2024-01-06T15:20:13;7.12;99.99
63407;SHT31;49543;45.892;10.838;2024-01-06T15:22:39;7.11;99.99
63407;SHT31;49543;45.892;10.838;2024-01-06T15:25:05;7.12;99.99
63407;SHT31;49543;45.892;10.838;2024-01-06T15:27:32;7.11;99.99
63407;SHT31;49543;45.892;10.838;2024-01-06T15:29:58;7.15;99.99
63407;SHT31;49543;45.892;10.838;2024-01-06T15:32:27;7.15;99.99
63407;SHT31;49543;45.892;10.838;2024-01-06T15:34:53;7.11;99.99
63407;SHT31;49543;45.892;10.838;2024-01-06T15:37:19;7.14;99.99
63407;SHT31;49543;45.892;10.838;2024-01-06T15:39:46;7.14;99.99
63407;SHT31;49543;45.892;10.838;2024-01-06T15:42:14;7.12;99.99
63407;SHT31;49543;45.892;10.838;2024-01-06T15:45:00;7.15;99.99
63407;SHT31;49543;45.892;10.838;2024-01-06T15:47:31;7.14;99.99
63407;SHT31;49543;45.892;10.838;2024-01-06T15:50:21;7.14;99.99
63407;SHT31;49543;45.892;10.838;2024-01-06T15:52:46;7.14;99.99
63407;SHT31;49543;45.892;10.838;2024-01-06T15:55:13;7.14;99.99
63407;SHT31;49543;45.892;10.838;2024-01-06T15:57:38;7.15;99.99
63407;SHT31;49543;45.892;10.838;2024-01-06T16:00:05;7.14;99.99
63407;SHT31;49543;45.892;10.838;2024-01-06T16:02:31;7.11;99.99
63407;SHT31;49543;45.892;10.838;2024-01-06T16:04:57;7.12;99.99
63407;SHT31;49543;45.892;10.838;2024-01-06T16:07:23;7.11;99.99
63407;SHT31;49543;45.892;10.838;2024-01-06T16:10:01;7.14;99.99
63407;SHT31;49543;45.892;10.838;2024-01-06T16:12:26;7.14;99.99
63407;SHT31;49543;45.892;10.838;2024-01-06T16:17:39;7.14;99.99
63407;SHT31;49543;45.892;10.838;2024-01-06T16:20:11;7.12;99.99
63407;SHT31;49543;45.892;10.838;2024-01-06T16:22:48;7.12;99.99
63407;SHT31;49543;45.892;10.838;2024-01-06T16:25:26;7.14;99.99
63407;SHT31;49543;45.892;10.838;2024-01-06T16:28:02;7.12;99.99
63407;SHT31;49543;45.892;10.838;2024-01-06T16:30:31;7.15;99.99
63407;SHT31;49543;45.892;10.838;2024-01-06T16:33:23;7.12;99.99
63407;SHT31;49543;45.892;10.838;2024-01-06T16:35:49;7.11;99.99
63407;SHT31;49543;45.892;10.838;2024-01-06T16:38:14;7.12;99.99
63407;SHT31;49543;45.892;10.838;2024-01-06T16:40:41;7.12;99.99
63407;SHT31;49543;45.892;10.838;2024-01-06T16:43:06;7.15;99.99
63407;SHT31;49543;45.892;10.838;2024-01-06T16:45:31;7.14;99.99
63407;SHT31;49543;45.892;10.838;2024-01-06T16:48:06;7.15;99.99
63407;SHT31;49543;45.892;10.838;2024-01-06T16:50:34;7.15;99.99
63407;SHT31;49543;45.892;10.838;2024-01-06T16:53:03;7.16;99.99
63407;SHT31;49543;45.892;10.838;2024-01-06T16:55:29;7.15;99.99
63407;SHT31;49543;45.892;10.838;2024-01-06T16:57:55;7.14;99.99
63407;SHT31;49543;45.892;10.838;2024-01-06T17:00:28;7.15;99.99
63407;SHT31;49543;45.892;10.838;2024-01-06T17:02:55;7.16;99.99
63407;SHT31;49543;45.892;10.838;2024-01-06T17:05:21;7.16;99.99
63407;SHT31;49543;45.892;10.838;2024-01-06T17:07:47;7.16;99.99
63407;SHT31;49543;45.892;10.838;2024-01-06T17:10:13;7.21;99.99
63407;SHT31;49543;45.892;10.838;2024-01-06T17:12:40;7.25;99.99
63407;SHT31;49543;45.892;10.838;2024-01-06T17:15:06;7.28;99.99
63407;SHT31;49543;45.892;10.838;2024-01-06T17:17:32;7.32;99.99
63407;SHT31;49543;45.892;10.838;2024-01-06T17:51:00;7.36;99.99
63407;SHT31;49543;45.892;10.838;2024-01-06T17:53:34;7.36;99.99
63407;SHT31;49543;45.892;10.838;2024-01-06T17:55:59;7.32;99.99
63407;SHT31;49543;45.892;10.838;2024-01-06T17:58:28;7.32;99.99
63407;SHT31;49543;45.892;10.838;2024-01-06T18:01:01;7.35;99.99
63407;SHT31;49543;45.892;10.838;2024-01-06T18:03:27;7.36;99.99
63407;SHT31;49543;45.892;10.838;2024-01-06T18:05:53;7.41;99.99
63407;SHT31;49543;45.892;10.838;2024-01-06T18:08:21;7.45;99.99
63407;SHT31;49543;45.892;10.838;2024-01-06T18:10:46;7.48;99.99
63407;SHT31;49543;45.892;10.838;2024-01-06T18:13:18;7.50;99.99
63407;SHT31;49543;45.892;10.838;2024-01-06T18:15:49;7.49;99.99
63407;SHT31;49543;45.892;10.838;2024-01-06T18:18:18;7.53;99.99
63407;SHT31;49543;45.892;10.838;2024-01-06T18:20:44;7.52;99.99
63407;SHT31;49543;45.892;10.838;2024-01-06T18:23:10;7.50;99.99
63407;SHT31;49543;45.892;10.838;2024-01-06T18:25:36;7.53;99.99
63407;SHT31;49543;45.892;10.838;2024-01-06T18:28:02;7.52;99.99
63407;SHT31;49543;45.892;10.838;2024-01-06T18:30:28;7.58;99.99
63407;SHT31;49543;45.892;10.838;2024-01-06T18:32:54;7.59;99.99
63407;SHT31;49543;45.892;10.838;2024-01-06T18:35:26;7.56;99.99
63407;SHT31;49543;45.892;10.838;2024-01-06T18:38:11;7.59;99.99
63407;SHT31;49543;45.892;10.838;2024-01-06T18:40:38;7.56;99.99
63407;SHT31;49543;45.892;10.838;2024-01-06T18:43:03;7.56;99.99
63407;SHT31;49543;45.892;10.838;2024-01-06T18:45:29;7.59;99.99
63407;SHT31;49543;45.892;10.838;2024-01-06T18:47:55;7.62;99.99
63407;SHT31;49543;45.892;10.838;2024-01-06T18:50:30;7.60;99.99
63407;SHT31;49543;45.892;10.838;2024-01-06T18:53:01;7.66;99.99
63407;SHT31;49543;45.892;10.838;2024-01-06T18:55:27;7.66;99.99
63407;SHT31;49543;45.892;10.838;2024-01-06T18:57:52;7.62;99.99
63407;SHT31;49543;45.892;10.838;2024-01-06T19:00:18;7.63;99.99
63407;SHT31;49543;45.892;10.838;2024-01-06T19:02:44;7.63;99.99
63407;SHT31;49543;45.892;10.838;2024-01-06T19:05:12;7.58;99.99
63407;SHT31;49543;45.892;10.838;2024-01-06T19:07:42;7.60;99.99
63407;SHT31;49543;45.892;10.838;2024-01-06T19:10:08;7.58;99.99
63407;SHT31;49543;45.892;10.838;2024-01-06T19:12:35;7.60;99.99
63407;SHT31;49543;45.892;10.838;2024-01-06T19:15:01;7.63;99.99
63407;SHT31;49543;45.892;10.838;2024-01-06T19:17:26;7.62;99.99
63407;SHT31;49543;45.892;10.838;2024-01-06T21:06:20;7.73;97.18
63407;SHT31;49543;45.892;10.838;2024-01-06T21:08:46;7.79;96.73
63407;SHT31;49543;45.892;10.838;2024-01-06T21:11:13;7.79;96.47
63407;SHT31;49543;45.892;10.838;2024-01-06T21:13:38;7.77;96.02
63407;SHT31;49543;45.892;10.838;2024-01-06T21:16:04;7.81;96.21
63407;SHT31;49543;45.892;10.838;2024-01-06T21:18:30;7.81;96.36
63407;SHT31;49543;45.892;10.838;2024-01-06T21:20:55;7.81;96.36
63407;SHT31;49543;45.892;10.838;2024-01-06T21:23:22;7.80;96.29
63407;SHT31;49543;45.892;10.838;2024-01-06T21:25:50;7.80;96.39
63407;SHT31;49543;45.892;10.838;2024-01-06T21:28:15;7.80;96.32
63407;SHT31;49543;45.892;10.838;2024-01-06T21:30:41;7.79;96.01
63407;SHT31;49543;45.892;10.838;2024-01-06T21:33:10;7.77;96.02
63407;SHT31;49543;45.892;10.838;2024-01-06T21:35:35;7.81;96.05
63407;SHT31;49543;45.892;10.838;2024-01-06T21:38:02;7.77;96.06
63407;SHT31;49543;45.892;10.838;2024-01-06T21:40:29;7.77;96.15
63407;SHT31;49543;45.892;10.838;2024-01-06T21:42:54;7.79;96.25
63407;SHT31;49543;45.892;10.838;2024-01-06T21:45:21;7.79;96.25
63407;SHT31;49543;45.892;10.838;2024-01-06T21:47:47;7.77;96.37
63407;SHT31;49543;45.892;10.838;2024-01-06T21:50:14;7.76;96.19
63407;SHT31;49543;45.892;10.838;2024-01-06T21:52:43;7.79;96.11
63407;SHT31;49543;45.892;10.838;2024-01-06T21:55:09;7.77;96.17
63407;SHT31;49543;45.892;10.838;2024-01-06T21:57:35;7.76;96.18
63407;SHT31;49543;45.892;10.838;2024-01-06T22:00:00;7.77;96.21
63407;SHT31;49543;45.892;10.838;2024-01-06T22:02:26;7.79;95.89
63407;SHT31;49543;45.892;10.838;2024-01-06T22:04:51;7.77;95.89
63407;SHT31;49543;45.892;10.838;2024-01-06T22:07:18;7.79;96.05
63407;SHT31;49543;45.892;10.838;2024-01-06T22:09:45;7.77;96.13
63407;SHT31;49543;45.892;10.838;2024-01-06T22:12:10;7.76;95.97
63407;SHT31;49543;45.892;10.838;2024-01-06T22:14:38;7.77;96.00
63407;SHT31;49543;45.892;10.838;2024-01-06T22:17:03;7.74;96.07
63407;SHT31;49543;45.892;10.838;2024-01-06T22:19:29;7.77;96.19
63407;SHT31;49543;45.892;10.838;2024-01-06T22:21:54;7.77;96.24
63407;SHT31;49543;45.892;10.838;2024-01-06T22:24:20;7.76;96.31
63407;SHT31;49543;45.892;10.838;2024-01-06T22:26:47;7.76;96.24
63407;SHT31;49543;45.892;10.838;2024-01-06T22:29:13;7.77;96.17
63407;SHT31;49543;45.892;10.838;2024-01-06T22:31:42;7.74;95.88
63407;SHT31;49543;45.892;10.838;2024-01-06T22:34:08;7.77;95.83
63407;SHT31;49543;45.892;10.838;2024-01-06T22:36:35;7.76;95.80
63407;SHT31;49543;45.892;10.838;2024-01-06T22:39:03;7.76;95.78
63407;SHT31;49543;45.892;10.838;2024-01-06T22:41:29;7.79;95.85
63407;SHT31;49543;45.892;10.838;2024-01-06T22:43:55;7.74;95.88
63407;SHT31;49543;45.892;10.838;2024-01-06T22:46:20;7.74;95.98
63407;SHT31;49543;45.892;10.838;2024-01-06T22:48:46;7.76;95.89
63407;SHT31;49543;45.892;10.838;2024-01-06T22:51:11;7.76;95.79
63407;SHT31;49543;45.892;10.838;2024-01-06T22:53:37;7.76;95.64
63407;SHT31;49543;45.892;10.838;2024-01-06T22:56:02;7.76;95.61
63407;SHT31;49543;45.892;10.838;2024-01-06T22:58:29;7.76;95.62
63407;SHT31;49543;45.892;10.838;2024-01-06T23:00:54;7.76;95.70
63407;SHT31;49543;45.892;10.838;2024-01-06T23:03:20;7.74;95.83
63407;SHT31;49543;45.892;10.838;2024-01-06T23:05:47;7.71;95.69
63407;SHT31;49543;45.892;10.838;2024-01-06T23:08:13;7.74;95.25
63407;SHT31;49543;45.892;10.838;2024-01-06T23:10:39;7.73;95.47
63407;SHT31;49543;45.892;10.838;2024-01-06T23:13:05;7.73;95.43
63407;SHT31;49543;45.892;10.838;2024-01-06T23:15:30;7.71;95.41
63407;SHT31;49543;45.892;10.838;2024-01-06T23:17:56;7.74;95.52
63407;SHT31;49543;45.892;10.838;2024-01-06T23:20:21;7.73;95.37
63407;SHT31;49543;45.892;10.838;2024-01-06T23:22:47;7.73;95.41
63407;SHT31;49543;45.892;10.838;2024-01-06T23:25:13;7.71;95.34
63407;SHT31;49543;45.892;10.838;2024-01-06T23:27:40;7.71;95.28
63407;SHT31;49543;45.892;10.838;2024-01-06T23:30:07;7.74;95.24
63407;SHT31;49543;45.892;10.838;2024-01-06T23:32:32;7.74;95.06
63407;SHT31;49543;45.892;10.838;2024-01-06T23:34:58;7.74;94.57
63407;SHT31;49543;45.892;10.838;2024-01-06T23:37:24;7.76;94.80
63407;SHT31;49543;45.892;10.838;2024-01-06T23:39:49;7.74;94.87
63407;SHT31;49543;45.892;10.838;2024-01-06T23:42:15;7.74;94.74
63407;SHT31;49543;45.892;10.838;2024-01-06T23:44:42;7.76;95.19
63407;SHT31;49543;45.892;10.838;2024-01-06T23:47:07;7.74;95.07
63407;SHT31;49543;45.892;10.838;2024-01-06T23:49:34;7.77;95.05
63407;SHT31;49543;45.892;10.838;2024-01-06T23:52:02;7.76;95.06
